sensor_id;sensor_type;location;lat;lon;timestamp;temperature;humidity
7214;DHT22;3648;50.614;13.830;2022-11-23T00:01:14;2.60;1.00
7214;DHT22;3648;50.614;13.830;2022-11-23T00:03:42;2.60;1.00
7214;DHT22;3648;50.614;13.830;2022-11-23T00:06:09;2.70;1.00
7214;DHT22;3648;50.614;13.830;2022-11-23T00:08:36;2.70;1.00
7214;DHT22;3648;50.614;13.830;2022-11-23T00:11:04;2.80;1.00
7214;DHT22;3648;50.614;13.830;2022-11-23T00:13:32;2.70;1.00
7214;DHT22;3648;50.614;13.830;2022-11-23T00:15:59;2.80;1.00
7214;DHT22;3648;50.614;13.830;2022-11-23T00:18:26;2.80;1.00
7214;DHT22;3648;50.614;13.830;2022-11-23T00:20:53;2.70;1.00
7214;DHT22;3648;50.614;13.830;2022-11-23T00:23:20;2.80;1.00
7214;DHT22;3648;50.614;13.830;2022-11-23T00:25:47;2.80;1.00
7214;DHT22;3648;50.614;13.830;2022-11-23T00:28:16;2.80;1.00
7214;DHT22;3648;50.614;13.830;2022-11-23T00:30:48;2.80;1.00
7214;DHT22;3648;50.614;13.830;2022-11-23T00:33:15;2.80;1.00
7214;DHT22;3648;50.614;13.830;2022-11-23T00:35:42;2.80;1.00
7214;DHT22;3648;50.614;13.830;2022-11-23T00:38:09;2.80;1.00
7214;DHT22;3648;50.614;13.830;2022-11-23T00:40:36;2.80;1.00
7214;DHT22;3648;50.614;13.830;2022-11-23T00:43:03;2.80;1.00
7214;DHT22;3648;50.614;13.830;2022-11-23T00:45:32;2.80;1.00
7214;DHT22;3648;50.614;13.830;2022-11-23T00:47:59;2.90;1.00
7214;DHT22;3648;50.614;13.830;2022-11-23T00:50:26;2.90;1.00
7214;DHT22;3648;50.614;13.830;2022-11-23T00:52:53;2.90;1.00
7214;DHT22;3648;50.614;13.830;2022-11-23T00:55:20;2.90;1.00
7214;DHT22;3648;50.614;13.830;2022-11-23T00:57:47;2.90;1.00
7214;DHT22;3648;50.614;13.830;2022-11-23T01:00:14;2.90;1.00
7214;DHT22;3648;50.614;13.830;2022-11-23T01:02:43;2.90;1.00
7214;DHT22;3648;50.614;13.830;2022-11-23T01:05:10;2.90;1.00
7214;DHT22;3648;50.614;13.830;2022-11-23T01:07:37;2.90;1.00
7214;DHT22;3648;50.614;13.830;2022-11-23T01:10:04;2.80;1.00
7214;DHT22;3648;50.614;13.830;2022-11-23T01:12:32;2.80;1.00
7214;DHT22;3648;50.614;13.830;2022-11-23T01:14:59;2.70;1.00
7214;DHT22;3648;50.614;13.830;2022-11-23T01:17:26;2.70;1.00
7214;DHT22;3648;50.614;13.830;2022-11-23T01:19:55;2.70;1.00
7214;DHT22;3648;50.614;13.830;2022-11-23T01:22:22;2.80;1.00
7214;DHT22;3648;50.614;13.830;2022-11-23T01:24:49;2.80;1.00
7214;DHT22;3648;50.614;13.830;2022-11-23T01:27:16;2.80;1.00
7214;DHT22;3648;50.614;13.830;2022-11-23T01:29:43;2.70;1.00
7214;DHT22;3648;50.614;13.830;2022-11-23T01:32:10;2.70;1.00
7214;DHT22;3648;50.614;13.830;2022-11-23T01:34:37;2.70;1.00
7214;DHT22;3648;50.614;13.830;2022-11-23T01:37:05;2.70;1.00
7214;DHT22;3648;50.614;13.830;2022-11-23T01:39:32;2.70;1.00
7214;DHT22;3648;50.614;13.830;2022-11-23T01:41:59;2.70;1.00
7214;DHT22;3648;50.614;13.830;2022-11-23T01:44:28;2.70;1.00
7214;DHT22;3648;50.614;13.830;2022-11-23T01:46:57;2.60;1.00
7214;DHT22;3648;50.614;13.830;2022-11-23T01:49:26;2.60;1.00
7214;DHT22;3648;50.614;13.830;2022-11-23T01:51:56;2.60;1.00
7214;DHT22;3648;50.614;13.830;2022-11-23T01:54:28;2.50;1.00
7214;DHT22;3648;50.614;13.830;2022-11-23T01:56:59;2.60;1.00
7214;DHT22;3648;50.614;13.830;2022-11-23T01:59:28;2.50;1.00
7214;DHT22;3648;50.614;13.830;2022-11-23T02:01:56;2.60;1.00
7214;DHT22;3648;50.614;13.830;2022-11-23T02:04:26;2.60;1.00
7214;DHT22;3648;50.614;13.830;2022-11-23T02:06:56;2.60;1.00
7214;DHT22;3648;50.614;13.830;2022-11-23T02:09:28;2.60;1.00
7214;DHT22;3648;50.614;13.830;2022-11-23T02:11:56;2.60;1.00
7214;DHT22;3648;50.614;13.830;2022-11-23T02:14:23;2.60;1.00
7214;DHT22;3648;50.614;13.830;2022-11-23T02:16:50;2.60;1.00
7214;DHT22;3648;50.614;13.830;2022-11-23T02:19:22;2.60;1.00
7214;DHT22;3648;50.614;13.830;2022-11-23T02:21:53;2.60;1.00
7214;DHT22;3648;50.614;13.830;2022-11-23T02:24:27;2.60;1.00
7214;DHT22;3648;50.614;13.830;2022-11-23T02:26:58;2.60;1.00
7214;DHT22;3648;50.614;13.830;2022-11-23T02:29:27;2.60;1.00
7214;DHT22;3648;50.614;13.830;2022-11-23T02:31:55;2.60;1.00
7214;DHT22;3648;50.614;13.830;2022-11-23T02:34:22;2.60;1.00
7214;DHT22;3648;50.614;13.830;2022-11-23T02:36:49;2.60;1.00
7214;DHT22;3648;50.614;13.830;2022-11-23T02:39:21;2.60;1.00
7214;DHT22;3648;50.614;13.830;2022-11-23T02:41:51;2.60;1.00
7214;DHT22;3648;50.614;13.830;2022-11-23T02:44:30;2.60;1.00
7214;DHT22;3648;50.614;13.830;2022-11-23T02:46:57;2.70;1.00
7214;DHT22;3648;50.614;13.830;2022-11-23T02:49:25;2.70;1.00
7214;DHT22;3648;50.614;13.830;2022-11-23T02:51:52;2.70;1.00
7214;DHT22;3648;50.614;13.830;2022-11-23T02:54:19;2.70;1.00
7214;DHT22;3648;50.614;13.830;2022-11-23T02:56:46;2.70;1.00
7214;DHT22;3648;50.614;13.830;2022-11-23T02:59:13;2.70;1.00
7214;DHT22;3648;50.614;13.830;2022-11-23T03:01:41;2.70;1.00
7214;DHT22;3648;50.614;13.830;2022-11-23T03:04:08;2.70;1.00
7214;DHT22;3648;50.614;13.830;2022-11-23T03:06:36;2.80;1.00
7214;DHT22;3648;50.614;13.830;2022-11-23T03:09:03;2.80;1.00
7214;DHT22;3648;50.614;13.830;2022-11-23T03:11:30;2.80;1.00
7214;DHT22;3648;50.614;13.830;2022-11-23T03:13:57;2.90;1.00
7214;DHT22;3648;50.614;13.830;2022-11-23T03:16:24;2.90;1.00
7214;DHT22;3648;50.614;13.830;2022-11-23T03:18:53;2.80;1.00
7214;DHT22;3648;50.614;13.830;2022-11-23T03:21:20;2.90;1.00
7214;DHT22;3648;50.614;13.830;2022-11-23T03:23:47;2.90;1.00
7214;DHT22;3648;50.614;13.830;2022-11-23T03:26:13;2.90;1.00
7214;DHT22;3648;50.614;13.830;2022-11-23T03:28:40;2.90;1.00
7214;DHT22;3648;50.614;13.830;2022-11-23T03:31:07;2.90;1.00
7214;DHT22;3648;50.614;13.830;2022-11-23T03:33:35;2.90;1.00
7214;DHT22;3648;50.614;13.830;2022-11-23T03:36:06;2.90;1.00
7214;DHT22;3648;50.614;13.830;2022-11-23T03:38:33;2.90;1.00
7214;DHT22;3648;50.614;13.830;2022-11-23T03:41:00;2.90;1.00
7214;DHT22;3648;50.614;13.830;2022-11-23T03:43:27;2.90;1.00
7214;DHT22;3648;50.614;13.830;2022-11-23T03:45:54;2.90;1.00
7214;DHT22;3648;50.614;13.830;2022-11-23T03:48:21;2.90;1.00
7214;DHT22;3648;50.614;13.830;2022-11-23T03:50:48;2.90;1.00
7214;DHT22;3648;50.614;13.830;2022-11-23T03:53:17;2.90;1.00
7214;DHT22;3648;50.614;13.830;2022-11-23T03:55:44;2.90;1.00
7214;DHT22;3648;50.614;13.830;2022-11-23T03:58:11;2.90;1.00
7214;DHT22;3648;50.614;13.830;2022-11-23T04:00:39;2.90;1.00
7214;DHT22;3648;50.614;13.830;2022-11-23T04:03:06;2.90;1.00
7214;DHT22;3648;50.614;13.830;2022-11-23T04:05:33;2.90;1.00
7214;DHT22;3648;50.614;13.830;2022-11-23T04:08:00;2.90;1.00
7214;DHT22;3648;50.614;13.830;2022-11-23T04:10:28;3.00;1.00
7214;DHT22;3648;50.614;13.830;2022-11-23T04:12:55;2.90;1.00
7214;DHT22;3648;50.614;13.830;2022-11-23T04:15:22;3.00;1.00
7214;DHT22;3648;50.614;13.830;2022-11-23T04:17:49;3.00;1.00
7214;DHT22;3648;50.614;13.830;2022-11-23T04:20:17;2.90;1.00
7214;DHT22;3648;50.614;13.830;2022-11-23T04:22:43;3.00;1.00
7214;DHT22;3648;50.614;13.830;2022-11-23T04:25:11;3.00;1.00
7214;DHT22;3648;50.614;13.830;2022-11-23T04:27:39;3.00;1.00
7214;DHT22;3648;50.614;13.830;2022-11-23T04:30:07;3.00;1.00
7214;DHT22;3648;50.614;13.830;2022-11-23T04:32:35;3.00;1.00
7214;DHT22;3648;50.614;13.830;2022-11-23T04:35:02;3.00;1.00
7214;DHT22;3648;50.614;13.830;2022-11-23T04:37:29;3.00;1.00
7214;DHT22;3648;50.614;13.830;2022-11-23T04:39:56;3.00;1.00
7214;DHT22;3648;50.614;13.830;2022-11-23T04:42:23;3.00;1.00
7214;DHT22;3648;50.614;13.830;2022-11-23T04:44:51;3.00;1.00
7214;DHT22;3648;50.614;13.830;2022-11-23T04:47:18;3.00;1.00
7214;DHT22;3648;50.614;13.830;2022-11-23T04:49:45;2.90;1.00
7214;DHT22;3648;50.614;13.830;2022-11-23T04:52:12;2.90;1.00
7214;DHT22;3648;50.614;13.830;2022-11-23T04:54:40;2.80;1.00
7214;DHT22;3648;50.614;13.830;2022-11-23T04:57:07;2.80;1.00
7214;DHT22;3648;50.614;13.830;2022-11-23T04:59:34;2.70;1.00
7214;DHT22;3648;50.614;13.830;2022-11-23T05:02:02;2.60;1.00
7214;DHT22;3648;50.614;13.830;2022-11-23T05:04:29;2.60;1.00
7214;DHT22;3648;50.614;13.830;2022-11-23T05:06:56;2.50;1.00
7214;DHT22;3648;50.614;13.830;2022-11-23T05:09:23;2.50;1.00
7214;DHT22;3648;50.614;13.830;2022-11-23T05:11:50;2.50;1.00
7214;DHT22;3648;50.614;13.830;2022-11-23T05:14:17;2.40;1.00
7214;DHT22;3648;50.614;13.830;2022-11-23T05:16:44;2.40;1.00
7214;DHT22;3648;50.614;13.830;2022-11-23T05:19:12;2.40;1.00
7214;DHT22;3648;50.614;13.830;2022-11-23T05:21:39;2.30;1.00
7214;DHT22;3648;50.614;13.830;2022-11-23T05:24:07;2.30;1.00
7214;DHT22;3648;50.614;13.830;2022-11-23T05:26:33;2.30;1.00
7214;DHT22;3648;50.614;13.830;2022-11-23T05:29:00;2.30;1.00
7214;DHT22;3648;50.614;13.830;2022-11-23T05:31:27;2.30;1.00
7214;DHT22;3648;50.614;13.830;2022-11-23T05:33:54;2.30;1.00
7214;DHT22;3648;50.614;13.830;2022-11-23T05:36:23;2.30;1.00
7214;DHT22;3648;50.614;13.830;2022-11-23T05:38:50;2.30;1.00
7214;DHT22;3648;50.614;13.830;2022-11-23T05:41:17;2.30;1.00
7214;DHT22;3648;50.614;13.830;2022-11-23T05:43:44;2.40;1.00
7214;DHT22;3648;50.614;13.830;2022-11-23T05:46:11;2.40;1.00
7214;DHT22;3648;50.614;13.830;2022-11-23T05:48:38;2.40;1.00
7214;DHT22;3648;50.614;13.830;2022-11-23T05:51:05;2.40;1.00
7214;DHT22;3648;50.614;13.830;2022-11-23T05:53:34;2.40;1.00
7214;DHT22;3648;50.614;13.830;2022-11-23T05:56:01;2.50;1.00
7214;DHT22;3648;50.614;13.830;2022-11-23T05:58:28;2.50;1.00
7214;DHT22;3648;50.614;13.830;2022-11-23T06:00:56;2.60;1.00
7214;DHT22;3648;50.614;13.830;2022-11-23T06:03:24;2.60;1.00
7214;DHT22;3648;50.614;13.830;2022-11-23T06:05:51;2.60;1.00
7214;DHT22;3648;50.614;13.830;2022-11-23T06:08:18;2.60;1.00
7214;DHT22;3648;50.614;13.830;2022-11-23T06:10:47;2.60;1.00
7214;DHT22;3648;50.614;13.830;2022-11-23T06:13:14;2.60;1.00
7214;DHT22;3648;50.614;13.830;2022-11-23T06:15:41;2.60;1.00
7214;DHT22;3648;50.614;13.830;2022-11-23T06:18:08;2.60;1.00
7214;DHT22;3648;50.614;13.830;2022-11-23T06:20:35;2.60;1.00
7214;DHT22;3648;50.614;13.830;2022-11-23T06:23:02;2.50;1.00
7214;DHT22;3648;50.614;13.830;2022-11-23T06:25:29;2.50;1.00
7214;DHT22;3648;50.614;13.830;2022-11-23T06:27:59;2.50;1.00
7214;DHT22;3648;50.614;13.830;2022-11-23T06:30:28;2.40;1.00
7214;DHT22;3648;50.614;13.830;2022-11-23T06:32:56;2.40;1.00
7214;DHT22;3648;50.614;13.830;2022-11-23T06:35:23;2.40;1.00
7214;DHT22;3648;50.614;13.830;2022-11-23T06:37:50;2.40;1.00
7214;DHT22;3648;50.614;13.830;2022-11-23T06:40:19;2.40;1.00
7214;DHT22;3648;50.614;13.830;2022-11-23T06:42:46;2.40;1.00
7214;DHT22;3648;50.614;13.830;2022-11-23T06:45:15;2.40;1.00
7214;DHT22;3648;50.614;13.830;2022-11-23T06:47:42;2.40;1.00
7214;DHT22;3648;50.614;13.830;2022-11-23T06:50:09;2.50;1.00
7214;DHT22;3648;50.614;13.830;2022-11-23T06:52:36;2.50;1.00
7214;DHT22;3648;50.614;13.830;2022-11-23T06:55:04;2.50;1.00
7214;DHT22;3648;50.614;13.830;2022-11-23T06:57:31;2.60;1.00
7214;DHT22;3648;50.614;13.830;2022-11-23T06:59:58;2.60;1.00
7214;DHT22;3648;50.614;13.830;2022-11-23T07:02:27;2.60;1.00
7214;DHT22;3648;50.614;13.830;2022-11-23T07:04:54;2.60;1.00
7214;DHT22;3648;50.614;13.830;2022-11-23T07:07:21;2.70;1.00
7214;DHT22;3648;50.614;13.830;2022-11-23T07:09:47;2.70;1.00
7214;DHT22;3648;50.614;13.830;2022-11-23T07:12:14;2.70;1.00
7214;DHT22;3648;50.614;13.830;2022-11-23T07:14:42;2.70;1.00
7214;DHT22;3648;50.614;13.830;2022-11-23T07:17:09;2.70;1.00
7214;DHT22;3648;50.614;13.830;2022-11-23T07:19:37;2.70;1.00
7214;DHT22;3648;50.614;13.830;2022-11-23T07:22:04;2.70;1.00
7214;DHT22;3648;50.614;13.830;2022-11-23T07:24:31;2.70;1.00
7214;DHT22;3648;50.614;13.830;2022-11-23T07:26:58;2.70;1.00
7214;DHT22;3648;50.614;13.830;2022-11-23T07:29:25;2.70;1.00
7214;DHT22;3648;50.614;13.830;2022-11-23T07:31:52;2.80;1.00
7214;DHT22;3648;50.614;13.830;2022-11-23T07:34:20;2.80;1.00
7214;DHT22;3648;50.614;13.830;2022-11-23T07:36:48;2.90;1.00
7214;DHT22;3648;50.614;13.830;2022-11-23T07:39:15;2.90;1.00
7214;DHT22;3648;50.614;13.830;2022-11-23T07:41:42;2.90;1.00
7214;DHT22;3648;50.614;13.830;2022-11-23T07:44:09;2.90;1.00
7214;DHT22;3648;50.614;13.830;2022-11-23T07:46:36;3.00;1.00
7214;DHT22;3648;50.614;13.830;2022-11-23T07:49:03;3.00;1.00
7214;DHT22;3648;50.614;13.830;2022-11-23T07:51:30;3.00;1.00
7214;DHT22;3648;50.614;13.830;2022-11-23T07:53:59;3.00;1.00
7214;DHT22;3648;50.614;13.830;2022-11-23T07:56:27;3.00;1.00
7214;DHT22;3648;50.614;13.830;2022-11-23T07:58:54;3.10;1.00
7214;DHT22;3648;50.614;13.830;2022-11-23T08:01:21;3.10;1.00
7214;DHT22;3648;50.614;13.830;2022-11-23T08:03:48;3.20;1.00
7214;DHT22;3648;50.614;13.830;2022-11-23T08:06:16;3.20;1.00
7214;DHT22;3648;50.614;13.830;2022-11-23T08:08:43;3.20;1.00
7214;DHT22;3648;50.614;13.830;2022-11-23T08:11:11;3.20;1.00
7214;DHT22;3648;50.614;13.830;2022-11-23T08:13:41;3.20;1.00
7214;DHT22;3648;50.614;13.830;2022-11-23T08:16:08;3.20;1.00
7214;DHT22;3648;50.614;13.830;2022-11-23T08:18:35;3.20;1.00
7214;DHT22;3648;50.614;13.830;2022-11-23T08:21:03;3.30;1.00
7214;DHT22;3648;50.614;13.830;2022-11-23T08:23:30;3.30;1.00
7214;DHT22;3648;50.614;13.830;2022-11-23T08:25:57;3.30;1.00
7214;DHT22;3648;50.614;13.830;2022-11-23T08:28:26;3.30;1.00
7214;DHT22;3648;50.614;13.830;2022-11-23T08:30:53;3.30;1.00
7214;DHT22;3648;50.614;13.830;2022-11-23T08:33:20;3.30;1.00
7214;DHT22;3648;50.614;13.830;2022-11-23T08:35:47;3.30;1.00
7214;DHT22;3648;50.614;13.830;2022-11-23T08:38:14;3.40;1.00
7214;DHT22;3648;50.614;13.830;2022-11-23T08:40:41;3.40;1.00
7214;DHT22;3648;50.614;13.830;2022-11-23T08:43:08;3.40;1.00
7214;DHT22;3648;50.614;13.830;2022-11-23T08:45:36;3.50;1.00
7214;DHT22;3648;50.614;13.830;2022-11-23T08:48:03;3.50;1.00
7214;DHT22;3648;50.614;13.830;2022-11-23T08:50:31;3.50;1.00
7214;DHT22;3648;50.614;13.830;2022-11-23T08:52:59;3.50;1.00
7214;DHT22;3648;50.614;13.830;2022-11-23T08:55:26;3.60;1.00
7214;DHT22;3648;50.614;13.830;2022-11-23T08:57:54;3.60;1.00
7214;DHT22;3648;50.614;13.830;2022-11-23T09:00:21;3.60;1.00
7214;DHT22;3648;50.614;13.830;2022-11-23T09:02:50;3.70;1.00
7214;DHT22;3648;50.614;13.830;2022-11-23T09:05:17;3.70;1.00
7214;DHT22;3648;50.614;13.830;2022-11-23T09:07:44;3.70;1.00
7214;DHT22;3648;50.614;13.830;2022-11-23T09:10:12;3.80;1.00
7214;DHT22;3648;50.614;13.830;2022-11-23T09:12:39;3.80;1.00
7214;DHT22;3648;50.614;13.830;2022-11-23T09:15:06;3.80;1.00
7214;DHT22;3648;50.614;13.830;2022-11-23T09:17:34;3.80;1.00
7214;DHT22;3648;50.614;13.830;2022-11-23T09:20:03;3.80;1.00
7214;DHT22;3648;50.614;13.830;2022-11-23T09:22:31;3.70;1.00
7214;DHT22;3648;50.614;13.830;2022-11-23T09:24:58;3.80;1.00
7214;DHT22;3648;50.614;13.830;2022-11-23T09:27:25;3.90;1.00
7214;DHT22;3648;50.614;13.830;2022-11-23T09:29:52;3.90;1.00
7214;DHT22;3648;50.614;13.830;2022-11-23T09:32:19;4.00;1.00
7214;DHT22;3648;50.614;13.830;2022-11-23T09:34:46;4.00;1.00
7214;DHT22;3648;50.614;13.830;2022-11-23T09:37:14;4.00;1.00
7214;DHT22;3648;50.614;13.830;2022-11-23T09:39:41;4.00;1.00
7214;DHT22;3648;50.614;13.830;2022-11-23T09:42:20;4.00;1.00
7214;DHT22;3648;50.614;13.830;2022-11-23T09:48:09;4.20;1.00
7214;DHT22;3648;50.614;13.830;2022-11-23T09:50:45;4.30;1.00
7214;DHT22;3648;50.614;13.830;2022-11-23T09:53:17;4.30;1.00
7214;DHT22;3648;50.614;13.830;2022-11-23T09:55:47;4.30;1.00
7214;DHT22;3648;50.614;13.830;2022-11-23T09:58:17;4.40;1.00
7214;DHT22;3648;50.614;13.830;2022-11-23T10:00:47;4.40;1.00
7214;DHT22;3648;50.614;13.830;2022-11-23T10:03:16;4.30;1.00
7214;DHT22;3648;50.614;13.830;2022-11-23T10:05:49;4.40;1.00
7214;DHT22;3648;50.614;13.830;2022-11-23T10:08:29;4.40;1.00
7214;DHT22;3648;50.614;13.830;2022-11-23T10:11:10;4.50;1.00
7214;DHT22;3648;50.614;13.830;2022-11-23T10:13:55;4.50;1.00
7214;DHT22;3648;50.614;13.830;2022-11-23T10:16:32;4.50;1.00
7214;DHT22;3648;50.614;13.830;2022-11-23T10:19:08;4.70;1.00
7214;DHT22;3648;50.614;13.830;2022-11-23T10:21:43;4.60;1.00
7214;DHT22;3648;50.614;13.830;2022-11-23T10:24:18;4.70;1.00
7214;DHT22;3648;50.614;13.830;2022-11-23T10:26:48;4.60;1.00
7214;DHT22;3648;50.614;13.830;2022-11-23T10:29:21;4.70;1.00
7214;DHT22;3648;50.614;13.830;2022-11-23T10:31:52;4.80;1.00
7214;DHT22;3648;50.614;13.830;2022-11-23T10:34:25;4.80;1.00
7214;DHT22;3648;50.614;13.830;2022-11-23T10:36:57;4.80;1.00
7214;DHT22;3648;50.614;13.830;2022-11-23T10:39:26;4.90;1.00
7214;DHT22;3648;50.614;13.830;2022-11-23T10:41:58;4.90;1.00
7214;DHT22;3648;50.614;13.830;2022-11-23T10:44:29;5.00;1.00
7214;DHT22;3648;50.614;13.830;2022-11-23T10:46:57;5.00;1.00
7214;DHT22;3648;50.614;13.830;2022-11-23T10:49:28;4.90;1.00
7214;DHT22;3648;50.614;13.830;2022-11-23T10:51:56;5.00;1.00
7214;DHT22;3648;50.614;13.830;2022-11-23T10:54:28;5.10;1.00
7214;DHT22;3648;50.614;13.830;2022-11-23T10:56:56;5.10;1.00
7214;DHT22;3648;50.614;13.830;2022-11-23T10:59:30;5.00;1.00
7214;DHT22;3648;50.614;13.830;2022-11-23T11:02:09;5.10;1.00
7214;DHT22;3648;50.614;13.830;2022-11-23T11:04:37;5.10;1.00
7214;DHT22;3648;50.614;13.830;2022-11-23T11:07:23;5.20;1.00
7214;DHT22;3648;50.614;13.830;2022-11-23T11:09:54;5.20;1.00
7214;DHT22;3648;50.614;13.830;2022-11-23T11:12:22;5.20;1.00
7214;DHT22;3648;50.614;13.830;2022-11-23T11:15:00;5.20;1.00
7214;DHT22;3648;50.614;13.830;2022-11-23T11:17:32;5.10;1.00
7214;DHT22;3648;50.614;13.830;2022-11-23T11:22:58;5.00;1.00
7214;DHT22;3648;50.614;13.830;2022-11-23T11:25:31;5.10;1.00
7214;DHT22;3648;50.614;13.830;2022-11-23T11:27:59;5.10;1.00
7214;DHT22;3648;50.614;13.830;2022-11-23T11:30:31;5.10;1.00
7214;DHT22;3648;50.614;13.830;2022-11-23T11:33:12;5.10;1.00
7214;DHT22;3648;50.614;13.830;2022-11-23T11:35:42;5.10;1.00
7214;DHT22;3648;50.614;13.830;2022-11-23T11:38:16;5.20;1.00
7214;DHT22;3648;50.614;13.830;2022-11-23T11:40:48;5.20;1.00
7214;DHT22;3648;50.614;13.830;2022-11-23T11:43:17;5.20;1.00
7214;DHT22;3648;50.614;13.830;2022-11-23T11:45:49;5.10;1.00
7214;DHT22;3648;50.614;13.830;2022-11-23T11:48:21;5.10;1.00
7214;DHT22;3648;50.614;13.830;2022-11-23T11:50:51;5.10;1.00
7214;DHT22;3648;50.614;13.830;2022-11-23T11:53:22;5.10;1.00
7214;DHT22;3648;50.614;13.830;2022-11-23T11:55:54;5.10;1.00
7214;DHT22;3648;50.614;13.830;2022-11-23T11:58:24;5.10;1.00
7214;DHT22;3648;50.614;13.830;2022-11-23T12:00:57;5.10;1.00
7214;DHT22;3648;50.614;13.830;2022-11-23T12:03:37;5.20;1.00
7214;DHT22;3648;50.614;13.830;2022-11-23T12:06:10;5.10;1.00
7214;DHT22;3648;50.614;13.830;2022-11-23T12:08:46;5.10;1.00
7214;DHT22;3648;50.614;13.830;2022-11-23T12:11:17;5.20;1.00
7214;DHT22;3648;50.614;13.830;2022-11-23T12:13:45;5.20;1.00
7214;DHT22;3648;50.614;13.830;2022-11-23T12:16:21;5.20;1.00
7214;DHT22;3648;50.614;13.830;2022-11-23T12:19:08;5.20;1.00
7214;DHT22;3648;50.614;13.830;2022-11-23T12:24:39;5.30;1.00
7214;DHT22;3648;50.614;13.830;2022-11-23T12:27:16;5.30;1.00
7214;DHT22;3648;50.614;13.830;2022-11-23T12:30:08;5.30;1.00
7214;DHT22;3648;50.614;13.830;2022-11-23T12:32:47;5.40;1.00
7214;DHT22;3648;50.614;13.830;2022-11-23T12:38:29;5.30;1.00
7214;DHT22;3648;50.614;13.830;2022-11-23T12:41:17;5.30;1.00
7214;DHT22;3648;50.614;13.830;2022-11-23T12:44:02;5.40;1.00
7214;DHT22;3648;50.614;13.830;2022-11-23T12:46:38;5.40;1.00
7214;DHT22;3648;50.614;13.830;2022-11-23T12:49:20;5.30;1.00
7214;DHT22;3648;50.614;13.830;2022-11-23T12:51:56;5.40;1.00
7214;DHT22;3648;50.614;13.830;2022-11-23T12:54:46;5.30;1.00
7214;DHT22;3648;50.614;13.830;2022-11-23T12:57:19;5.30;1.00
7214;DHT22;3648;50.614;13.830;2022-11-23T12:59:53;5.30;1.00
7214;DHT22;3648;50.614;13.830;2022-11-23T13:02:57;5.30;1.00
7214;DHT22;3648;50.614;13.830;2022-11-23T13:05:54;5.30;1.00
7214;DHT22;3648;50.614;13.830;2022-11-23T13:08:53;5.30;1.00
7214;DHT22;3648;50.614;13.830;2022-11-23T13:11:36;5.20;1.00
7214;DHT22;3648;50.614;13.830;2022-11-23T13:14:14;5.20;1.00
7214;DHT22;3648;50.614;13.830;2022-11-23T13:17:11;5.20;1.00
7214;DHT22;3648;50.614;13.830;2022-11-23T13:19:57;5.20;1.00
7214;DHT22;3648;50.614;13.830;2022-11-23T13:22:29;5.20;1.00
7214;DHT22;3648;50.614;13.830;2022-11-23T13:25:13;5.20;1.00
7214;DHT22;3648;50.614;13.830;2022-11-23T13:27:53;5.20;1.00
7214;DHT22;3648;50.614;13.830;2022-11-23T13:30:24;5.20;1.00
7214;DHT22;3648;50.614;13.830;2022-11-23T13:32:58;5.20;1.00
7214;DHT22;3648;50.614;13.830;2022-11-23T13:35:52;5.20;1.00
7214;DHT22;3648;50.614;13.830;2022-11-23T13:38:25;5.10;1.00
7214;DHT22;3648;50.614;13.830;2022-11-23T13:40:54;5.20;1.00
7214;DHT22;3648;50.614;13.830;2022-11-23T13:43:24;5.20;1.00
7214;DHT22;3648;50.614;13.830;2022-11-23T13:46:19;5.20;1.00
7214;DHT22;3648;50.614;13.830;2022-11-23T13:48:50;5.20;1.00
7214;DHT22;3648;50.614;13.830;2022-11-23T13:51:24;5.20;1.00
7214;DHT22;3648;50.614;13.830;2022-11-23T13:53:55;5.20;1.00
7214;DHT22;3648;50.614;13.830;2022-11-23T13:56:31;5.20;1.00
7214;DHT22;3648;50.614;13.830;2022-11-23T13:59:28;5.20;1.00
7214;DHT22;3648;50.614;13.830;2022-11-23T14:02:01;5.20;1.00
7214;DHT22;3648;50.614;13.830;2022-11-23T14:04:55;5.20;1.00
7214;DHT22;3648;50.614;13.830;2022-11-23T14:07:42;5.20;1.00
7214;DHT22;3648;50.614;13.830;2022-11-23T14:10:20;5.20;1.00
7214;DHT22;3648;50.614;13.830;2022-11-23T14:12:51;5.10;1.00
7214;DHT22;3648;50.614;13.830;2022-11-23T14:15:20;5.00;1.00
7214;DHT22;3648;50.614;13.830;2022-11-23T14:17:59;5.00;1.00
7214;DHT22;3648;50.614;13.830;2022-11-23T14:20:57;5.00;1.00
7214;DHT22;3648;50.614;13.830;2022-11-23T14:23:56;5.00;1.00
7214;DHT22;3648;50.614;13.830;2022-11-23T14:26:34;5.00;1.00
7214;DHT22;3648;50.614;13.830;2022-11-23T14:29:20;5.00;1.00
7214;DHT22;3648;50.614;13.830;2022-11-23T14:32:02;5.00;1.00
7214;DHT22;3648;50.614;13.830;2022-11-23T14:34:42;5.00;1.00
7214;DHT22;3648;50.614;13.830;2022-11-23T14:37:20;5.00;1.00
7214;DHT22;3648;50.614;13.830;2022-11-23T14:40:04;5.00;1.00
7214;DHT22;3648;50.614;13.830;2022-11-23T14:42:44;5.00;1.00
7214;DHT22;3648;50.614;13.830;2022-11-23T14:45:16;5.00;1.00
7214;DHT22;3648;50.614;13.830;2022-11-23T14:47:45;5.00;1.00
7214;DHT22;3648;50.614;13.830;2022-11-23T14:50:21;5.00;1.00
7214;DHT22;3648;50.614;13.830;2022-11-23T14:52:50;5.00;1.00
7214;DHT22;3648;50.614;13.830;2022-11-23T14:55:21;5.00;1.00
7214;DHT22;3648;50.614;13.830;2022-11-23T14:57:51;5.00;1.00
7214;DHT22;3648;50.614;13.830;2022-11-23T15:00:30;5.00;1.00
7214;DHT22;3648;50.614;13.830;2022-11-23T15:03:00;5.00;1.00
7214;DHT22;3648;50.614;13.830;2022-11-23T15:05:32;5.00;1.00
7214;DHT22;3648;50.614;13.830;2022-11-23T15:08:05;4.90;1.00
7214;DHT22;3648;50.614;13.830;2022-11-23T15:10:41;5.00;1.00
7214;DHT22;3648;50.614;13.830;2022-11-23T15:13:20;5.00;1.00
7214;DHT22;3648;50.614;13.830;2022-11-23T15:15:49;4.90;1.00
7214;DHT22;3648;50.614;13.830;2022-11-23T15:18:32;4.90;1.00
7214;DHT22;3648;50.614;13.830;2022-11-23T15:21:02;4.80;1.00
7214;DHT22;3648;50.614;13.830;2022-11-23T15:23:34;4.80;1.00
7214;DHT22;3648;50.614;13.830;2022-11-23T15:26:05;4.90;1.00
7214;DHT22;3648;50.614;13.830;2022-11-23T15:28:34;4.90;1.00
7214;DHT22;3648;50.614;13.830;2022-11-23T15:31:24;4.80;1.00
7214;DHT22;3648;50.614;13.830;2022-11-23T15:33:56;4.80;1.00
7214;DHT22;3648;50.614;13.830;2022-11-23T15:36:26;4.80;1.00
7214;DHT22;3648;50.614;13.830;2022-11-23T15:38:56;4.70;1.00
7214;DHT22;3648;50.614;13.830;2022-11-23T15:41:24;4.70;1.00
7214;DHT22;3648;50.614;13.830;2022-11-23T15:43:54;4.60;1.00
7214;DHT22;3648;50.614;13.830;2022-11-23T15:46:23;4.60;1.00
7214;DHT22;3648;50.614;13.830;2022-11-23T15:48:52;4.50;1.00
7214;DHT22;3648;50.614;13.830;2022-11-23T15:51:28;4.50;1.00
7214;DHT22;3648;50.614;13.830;2022-11-23T15:53:59;4.50;1.00
7214;DHT22;3648;50.614;13.830;2022-11-23T15:56:29;4.50;1.00
7214;DHT22;3648;50.614;13.830;2022-11-23T15:58:57;4.50;1.00
7214;DHT22;3648;50.614;13.830;2022-11-23T16:01:25;4.50;1.00
7214;DHT22;3648;50.614;13.830;2022-11-23T16:03:54;4.50;1.00
7214;DHT22;3648;50.614;13.830;2022-11-23T16:06:36;4.50;1.00
7214;DHT22;3648;50.614;13.830;2022-11-23T16:09:33;4.50;1.00
7214;DHT22;3648;50.614;13.830;2022-11-23T16:12:01;4.50;1.00
7214;DHT22;3648;50.614;13.830;2022-11-23T16:14:30;4.40;1.00
7214;DHT22;3648;50.614;13.830;2022-11-23T16:17:13;4.40;1.00
7214;DHT22;3648;50.614;13.830;2022-11-23T16:19:46;4.30;1.00
7214;DHT22;3648;50.614;13.830;2022-11-23T16:22:21;4.30;1.00
7214;DHT22;3648;50.614;13.830;2022-11-23T16:24:57;4.30;1.00
7214;DHT22;3648;50.614;13.830;2022-11-23T16:27:26;4.20;1.00
7214;DHT22;3648;50.614;13.830;2022-11-23T16:29:53;4.20;1.00
7214;DHT22;3648;50.614;13.830;2022-11-23T16:32:23;4.20;1.00
7214;DHT22;3648;50.614;13.830;2022-11-23T16:34:51;4.10;1.00
7214;DHT22;3648;50.614;13.830;2022-11-23T16:37:18;4.10;1.00
7214;DHT22;3648;50.614;13.830;2022-11-23T16:39:45;4.10;1.00
7214;DHT22;3648;50.614;13.830;2022-11-23T16:42:15;4.10;1.00
7214;DHT22;3648;50.614;13.830;2022-11-23T16:44:42;4.00;1.00
7214;DHT22;3648;50.614;13.830;2022-11-23T16:47:22;4.00;1.00
7214;DHT22;3648;50.614;13.830;2022-11-23T16:49:49;4.00;1.00
7214;DHT22;3648;50.614;13.830;2022-11-23T16:52:17;4.00;1.00